createdAt,value
2023-02-14T00:00:44.148Z,4.039612
2023-02-14T00:04:09.366Z,4.049683
2023-02-14T00:07:34.497Z,4.039612
2023-02-14T00:11:00.040Z,3.979187
2023-02-14T00:14:24.861Z,3.969116
2023-02-14T00:17:49.992Z,3.979187
2023-02-14T00:21:15.166Z,3.938904
2023-02-14T00:24:40.321Z,3.878479
2023-02-14T00:28:05.500Z,3.868408
2023-02-14T00:31:30.781Z,3.868408
2023-02-14T00:34:55.818Z,3.797913
2023-02-14T00:38:20.979Z,3.646851
2023-02-14T00:41:46.143Z,3.536072
2023-02-14T00:45:11.323Z,3.536072
2023-02-14T00:48:36.514Z,3.616638
2023-02-14T00:52:01.670Z,3.787842
2023-02-14T00:55:26.842Z,3.838196
2023-02-14T00:58:52.017Z,3.797913
2023-02-14T01:02:17.191Z,3.928833
2023-02-14T01:05:42.381Z,3.938904
2023-02-14T01:09:07.523Z,3.777771
2023-02-14T01:12:32.688Z,3.606567
2023-02-14T01:15:57.861Z,3.51593
2023-02-14T01:19:24.256Z,3.495789
2023-02-14T01:22:49.457Z,3.244019
2023-02-14T01:26:14.620Z,2.851257
2023-02-14T01:29:39.809Z,2.569275
2023-02-14T01:33:04.967Z,2.337646
2023-02-14T01:36:30.161Z,2.116089
2023-02-14T01:39:55.349Z,1.954956
2023-02-14T01:43:20.474Z,1.87439
2023-02-14T01:46:45.679Z,1.864319
2023-02-14T01:50:10.881Z,1.813965
2023-02-14T01:53:36.047Z,1.662903
2023-02-14T01:57:01.255Z,1.451416
2023-02-14T02:00:26.401Z,1.471558
2023-02-14T02:03:51.582Z,1.62262
2023-02-14T02:07:16.787Z,1.592407
2023-02-14T02:10:41.953Z,1.662903
2023-02-14T02:14:07.141Z,1.63269
2023-02-14T02:17:32.285Z,1.693115
2023-02-14T02:20:57.779Z,1.773682
2023-02-14T02:24:22.609Z,1.793823
2023-02-14T02:27:47.785Z,1.62262
2023-02-14T02:31:13.865Z,1.50177
2023-02-14T02:34:38.966Z,1.441345
2023-02-14T02:38:04.136Z,1.401062
2023-02-14T02:41:29.298Z,1.401062
2023-02-14T02:44:54.509Z,1.441345
2023-02-14T02:48:19.714Z,1.50177
2023-02-14T02:51:44.871Z,1.441345
2023-02-14T02:55:10.060Z,1.239929
2023-02-14T02:58:35.259Z,1.179504
2023-02-14T03:02:00.449Z,1.199646
2023-02-14T03:05:25.671Z,1.229858
2023-02-14T03:08:50.795Z,1.320496
2023-02-14T03:12:15.960Z,1.360779
2023-02-14T03:15:41.188Z,1.37085
2023-02-14T03:19:06.328Z,1.290283
2023-02-14T03:22:31.547Z,1.270142
2023-02-14T03:25:56.678Z,1.340637
2023-02-14T03:29:21.858Z,1.330566
2023-02-14T03:32:47.051Z,1.229858
2023-02-14T03:36:12.251Z,1.109009
2023-02-14T03:39:37.424Z,1.018372
2023-02-14T03:43:02.585Z,1.038513
2023-02-14T03:46:27.763Z,1.199646
2023-02-14T03:49:52.898Z,1.300354
2023-02-14T03:53:18.064Z,1.300354
2023-02-14T03:56:43.256Z,1.270142
2023-02-14T04:00:08.661Z,1.320496
2023-02-14T04:03:33.863Z,1.340637
2023-02-14T04:06:59.011Z,1.320496
2023-02-14T04:10:24.183Z,1.411133
2023-02-14T04:13:49.412Z,1.421204
2023-02-14T04:17:14.554Z,1.239929
2023-02-14T04:20:39.720Z,1.159363
2023-02-14T04:24:04.881Z,0.968018
2023-02-14T04:27:30.054Z,0.968018
2023-02-14T04:30:55.362Z,0.968018
2023-02-14T04:34:20.402Z,0.937805
2023-02-14T04:37:45.597Z,0.696106
2023-02-14T04:41:10.743Z,0.696106
2023-02-14T04:44:36.941Z,0.716248
2023-02-14T04:48:01.132Z,0.837097
2023-02-14T04:51:27.616Z,0.937805
2023-02-14T04:54:51.420Z,1.048584
2023-02-14T04:58:16.616Z,0.968018
2023-02-14T05:01:41.835Z,0.857239
2023-02-14T05:05:06.996Z,0.796814
2023-02-14T05:08:32.147Z,0.796814
2023-02-14T05:11:57.308Z,0.827026
2023-02-14T05:15:22.475Z,0.907593
2023-02-14T05:18:47.657Z,0.99823
2023-02-14T05:22:12.869Z,0.897522
2023-02-14T05:25:37.992Z,0.786743
2023-02-14T05:29:03.162Z,0.756531
2023-02-14T05:32:28.340Z,0.86731
2023-02-14T05:35:53.517Z,0.86731
2023-02-14T05:39:18.825Z,0.827026
2023-02-14T05:42:36.637Z,0.857239
2023-02-14T05:46:01.872Z,0.827026
2023-02-14T05:49:26.986Z,0.696106
2023-02-14T05:52:52.162Z,0.686035
2023-02-14T05:56:17.351Z,0.726318
2023-02-14T05:59:42.497Z,0.716248
2023-02-14T06:03:07.713Z,0.575256
2023-02-14T06:06:34.672Z,0.504761
2023-02-14T06:09:58.137Z,0.464478
2023-02-14T06:13:23.497Z,0.444336
2023-02-14T06:16:48.742Z,0.565186
2023-02-14T06:20:13.860Z,0.61554
2023-02-14T06:23:39.018Z,0.595398
2023-02-14T06:27:04.212Z,0.575256
2023-02-14T06:30:29.677Z,0.61554
2023-02-14T06:33:54.708Z,0.655823
2023-02-14T06:37:19.892Z,0.756531
2023-02-14T06:40:45.061Z,0.786743
2023-02-14T06:44:10.354Z,0.87738
2023-02-14T06:47:35.560Z,0.937805
2023-02-14T06:51:01.074Z,1.018372
2023-02-14T06:54:26.049Z,1.058655
2023-02-14T06:57:51.283Z,1.179504
2023-02-14T07:01:16.541Z,1.270142
2023-02-14T07:04:41.724Z,1.290283
2023-02-14T07:08:07.860Z,1.290283
2023-02-14T07:11:35.689Z,1.330566
2023-02-14T07:15:00.922Z,1.340637
2023-02-14T07:18:26.145Z,1.37085
2023-02-14T07:21:51.432Z,1.421204
2023-02-14T07:25:16.575Z,1.481628
2023-02-14T07:28:43.754Z,1.542053
2023-02-14T07:32:07.171Z,1.592407
2023-02-14T07:35:32.225Z,1.652832
2023-02-14T07:38:57.467Z,1.773682
2023-02-14T07:42:25.942Z,1.844177
2023-02-14T07:45:51.778Z,1.985168
2023-02-14T07:49:16.938Z,2.095947
2023-02-14T07:52:42.144Z,2.196655
2023-02-14T07:56:07.349Z,2.307434
2023-02-14T07:59:32.502Z,2.458496
2023-02-14T08:02:57.754Z,2.599487
2023-02-14T08:06:22.949Z,2.750549
2023-02-14T08:09:48.177Z,2.901611
2023-02-14T08:13:13.417Z,3.032532
2023-02-14T08:16:38.572Z,3.143311
2023-02-14T08:20:03.773Z,3.324585
2023-02-14T08:23:28.958Z,3.51593
2023-02-14T08:26:54.167Z,3.828125
2023-02-14T08:30:19.439Z,3.999329
2023-02-14T08:33:44.653Z,4.291382
2023-02-14T08:37:09.886Z,4.452515
2023-02-14T08:40:35.234Z,4.593506
2023-02-14T08:44:00.333Z,4.77478
2023-02-14T08:47:25.600Z,4.885559
2023-02-14T08:50:50.770Z,4.935913
2023-02-14T08:54:15.994Z,5.02655
2023-02-14T08:57:41.228Z,5.066833
2023-02-14T09:01:06.493Z,5.207825
2023-02-14T09:04:31.750Z,5.308533
2023-02-14T09:07:56.879Z,5.429382
2023-02-14T09:11:22.188Z,5.570374
2023-02-14T09:14:47.311Z,5.671082
2023-02-14T09:18:12.619Z,5.78186
2023-02-14T09:21:38.483Z,5.90271
2023-02-14T09:25:03.644Z,6.03363
2023-02-14T09:28:28.887Z,6.194763
2023-02-14T09:31:54.144Z,6.335754
2023-02-14T09:35:19.315Z,6.476746
2023-02-14T09:38:44.583Z,6.607666
2023-02-14T09:42:09.734Z,6.668091
2023-02-14T09:45:35.003Z,6.768799
2023-02-14T09:49:00.170Z,6.879578
2023-02-14T09:52:25.332Z,6.940002
2023-02-14T09:55:50.620Z,7.050781
2023-02-14T09:59:15.746Z,7.091064
2023-02-14T10:02:40.943Z,7.171631
2023-02-14T10:06:06.150Z,7.252197
2023-02-14T10:09:31.343Z,7.373047
2023-02-14T10:12:56.644Z,7.493896
2023-02-14T10:16:21.857Z,7.614746
2023-02-14T10:19:47.098Z,7.6651
2023-02-14T10:23:12.295Z,7.735596
2023-02-14T10:26:37.493Z,7.846375
2023-02-14T10:30:02.849Z,7.926941
2023-02-14T10:33:27.974Z,8.017578
2023-02-14T10:36:53.259Z,8.118286
2023-02-14T10:40:18.477Z,8.229065
2023-02-14T10:43:43.699Z,8.329773
2023-02-14T10:47:08.931Z,8.410339
2023-02-14T10:50:35.344Z,8.480835
2023-02-14T10:54:00.561Z,8.631897
2023-02-14T10:57:25.747Z,8.742676
2023-02-14T11:00:51.072Z,8.843384
2023-02-14T11:04:16.330Z,8.913879
2023-02-14T11:07:41.437Z,8.984375
2023-02-14T11:11:06.684Z,9.054871
2023-02-14T11:14:31.880Z,9.075012
2023-02-14T11:17:57.073Z,9.105225
2023-02-14T11:21:22.307Z,9.17572
2023-02-14T11:24:47.497Z,9.256287
2023-02-14T11:28:12.703Z,9.286499
2023-02-14T11:31:38.072Z,9.316711
2023-02-14T11:35:03.166Z,9.326782
2023-02-14T11:38:28.431Z,9.417419
2023-02-14T11:41:55.364Z,9.497986
2023-02-14T11:45:20.686Z,9.578552
2023-02-14T11:48:46.949Z,9.649048
2023-02-14T11:52:13.401Z,9.649048
2023-02-14T11:55:38.821Z,9.749756
2023-02-14T11:59:04.547Z,9.830322
2023-02-14T12:02:30.637Z,9.860535
2023-02-14T12:05:56.289Z,10.011597
2023-02-14T12:09:28.510Z,10.041809
2023-02-14T12:12:53.978Z,10.092163
2023-02-14T12:16:19.246Z,10.082092
2023-02-14T12:19:44.597Z,10.142517
2023-02-14T12:23:09.919Z,10.112305
2023-02-14T12:26:35.340Z,10.1828
2023-02-14T12:30:00.839Z,10.263367
2023-02-14T12:33:26.035Z,10.30365
2023-02-14T12:36:51.389Z,10.293579
2023-02-14T12:40:16.808Z,10.30365
2023-02-14T12:43:42.001Z,10.323792
2023-02-14T12:47:13.538Z,10.323792
2023-02-14T12:50:39.306Z,10.343933
2023-02-14T12:54:06.113Z,10.323792
2023-02-14T12:57:31.466Z,10.30365
2023-02-14T13:00:56.792Z,10.384216
2023-02-14T13:04:22.103Z,10.474854
2023-02-14T13:07:47.399Z,10.454712
2023-02-14T13:11:12.732Z,10.454712
2023-02-14T13:14:38.731Z,10.505066
2023-02-14T13:18:04.278Z,10.454712
2023-02-14T13:21:29.675Z,10.474854
2023-02-14T13:24:55.020Z,10.505066
2023-02-14T13:28:20.482Z,10.515137
2023-02-14T13:31:45.954Z,10.454712
2023-02-14T13:35:11.165Z,10.505066
2023-02-14T13:38:36.547Z,10.525208
2023-02-14T13:42:01.982Z,10.525208
2023-02-14T13:45:27.401Z,10.4245
2023-02-14T13:48:53.222Z,10.444641
2023-02-14T13:52:19.147Z,10.4245
2023-02-14T13:55:44.483Z,10.4245
2023-02-14T13:59:09.844Z,10.4245
2023-02-14T14:02:35.243Z,10.444641
2023-02-14T14:06:01.028Z,10.484924
2023-02-14T14:09:25.972Z,10.4245
2023-02-14T14:12:51.314Z,10.343933
2023-02-14T14:16:16.663Z,10.333862
2023-02-14T14:19:41.975Z,10.343933
2023-02-14T14:23:07.349Z,10.333862
2023-02-14T14:26:32.742Z,10.233154
2023-02-14T14:29:58.511Z,10.223083
2023-02-14T15:05:44.832Z,10.263367
2023-02-14T15:09:10.466Z,10.122375
2023-02-14T15:12:36.012Z,10.092163
2023-02-14T15:16:03.781Z,10.082092
2023-02-14T15:19:26.908Z,10.05188
2023-02-14T15:22:52.351Z,9.971313
2023-02-14T15:26:17.664Z,9.910889
2023-02-14T15:29:42.978Z,9.830322
2023-02-14T15:33:08.285Z,9.749756
2023-02-14T15:36:33.578Z,9.689331
2023-02-14T15:39:58.872Z,9.528198
2023-02-14T15:43:24.216Z,9.377136
2023-02-14T15:46:49.489Z,9.17572
2023-02-14T15:50:14.800Z,8.964233
2023-02-14T15:53:40.084Z,8.682251
2023-02-14T15:57:05.440Z,8.28949
2023-02-14T16:00:30.733Z,7.886658
2023-02-14T16:03:56.053Z,7.524109
2023-02-14T16:07:21.353Z,7.050781
2023-02-14T16:10:46.704Z,6.637878
2023-02-14T16:14:11.935Z,6.194763
2023-02-14T16:17:37.093Z,5.90271
2023-02-14T16:21:02.520Z,5.640869
2023-02-14T16:24:27.504Z,5.671082
2023-02-14T16:27:52.711Z,5.630798
2023-02-14T16:31:18.063Z,5.449524
2023-02-14T16:34:43.176Z,5.419312
2023-02-14T16:38:08.369Z,5.449524
2023-02-14T16:41:33.579Z,5.479736
2023-02-14T16:44:58.776Z,5.389099
2023-02-14T16:48:24.011Z,5.167542
2023-02-14T16:51:49.239Z,4.875488
2023-02-14T16:55:14.473Z,4.77478
2023-02-14T16:58:39.717Z,4.855347
2023-02-14T17:02:04.933Z,4.986267
2023-02-14T17:05:30.161Z,4.966125
2023-02-14T17:08:55.308Z,4.996338
2023-02-14T17:12:20.525Z,4.986267
2023-02-14T17:15:45.800Z,4.986267
2023-02-14T17:19:11.063Z,4.956055
2023-02-14T17:22:36.288Z,4.804993
2023-02-14T17:26:01.449Z,4.664001
2023-02-14T17:29:26.668Z,4.633789
2023-02-14T17:32:51.916Z,4.52301
2023-02-14T17:36:17.189Z,4.452515
2023-02-14T17:39:42.449Z,4.301453
2023-02-14T17:43:07.602Z,3.979187
2023-02-14T17:46:32.862Z,3.999329
2023-02-14T17:49:58.063Z,4.110107
2023-02-14T17:53:23.288Z,4.120178
2023-02-14T17:56:48.483Z,4.150391
2023-02-14T18:00:13.673Z,4.01947
2023-02-14T18:03:38.927Z,3.938904
2023-02-14T18:07:04.188Z,3.898621
2023-02-14T18:10:35.250Z,3.787842
2023-02-14T18:14:00.526Z,3.858337
2023-02-14T18:17:25.720Z,3.908691
2023-02-14T18:20:50.989Z,3.878479
2023-02-14T18:24:16.234Z,3.727417
2023-02-14T18:27:41.481Z,3.536072
2023-02-14T18:31:07.003Z,3.38501
2023-02-14T18:34:32.082Z,3.213806
2023-02-14T18:37:57.322Z,3.334656
2023-02-14T18:41:22.555Z,3.395081
2023-02-14T18:44:47.784Z,3.566284
2023-02-14T18:48:13.024Z,3.566284
2023-02-14T18:51:38.256Z,3.546143
2023-02-14T18:55:03.527Z,3.51593
2023-02-14T18:58:28.776Z,3.536072
2023-02-14T19:01:54.117Z,3.576355
2023-02-14T19:05:19.363Z,3.415222
2023-02-14T19:08:44.597Z,3.284302
2023-02-14T19:12:09.845Z,3.082886
2023-02-14T19:15:35.115Z,3.032532
2023-02-14T19:19:00.424Z,3.032532
2023-02-14T19:22:25.737Z,3.113098
2023-02-14T19:25:50.955Z,3.082886
2023-02-14T19:29:16.213Z,3.143311
2023-02-14T19:32:41.507Z,3.153381
2023-02-14T19:36:06.791Z,2.962036
2023-02-14T19:39:32.046Z,2.780762
2023-02-14T19:42:57.301Z,2.851257
2023-02-14T19:46:22.556Z,2.921753
2023-02-14T19:49:48.370Z,2.790833
2023-02-14T19:53:13.077Z,2.720337
2023-02-14T19:56:38.383Z,2.780762
2023-02-14T20:00:03.634Z,2.770691
2023-02-14T20:03:28.894Z,2.589417
2023-02-14T20:06:54.137Z,2.528992
2023-02-14T20:10:19.386Z,2.448425
2023-02-14T20:13:44.659Z,2.408142
2023-02-14T20:17:09.913Z,2.448425
2023-02-14T20:20:35.140Z,2.478638
2023-02-14T20:24:00.393Z,2.388
2023-02-14T20:27:25.687Z,2.267151
2023-02-14T20:30:51.029Z,2.226868
2023-02-14T20:34:16.213Z,2.226868
2023-02-14T20:37:41.839Z,2.206726
2023-02-14T20:41:07.095Z,2.166443
2023-02-14T20:44:32.304Z,2.156372
2023-02-14T20:47:57.488Z,2.226868
2023-02-14T20:51:22.639Z,2.176514
2023-02-14T20:54:47.813Z,2.176514
2023-02-14T20:58:13.034Z,2.337646
2023-02-14T21:01:38.250Z,2.528992
2023-02-14T21:05:03.378Z,2.669983
2023-02-14T21:08:28.504Z,2.821045
2023-02-14T21:11:53.687Z,2.921753
2023-02-14T21:15:18.849Z,3.052673
2023-02-14T21:18:44.022Z,3.13324
2023-02-14T21:22:09.229Z,3.233948
2023-02-14T21:25:34.368Z,3.334656
2023-02-14T21:28:59.559Z,3.505859
2023-02-14T21:32:24.740Z,3.576355
2023-02-14T21:35:49.914Z,3.656921
2023-02-14T21:39:15.117Z,3.687134
2023-02-14T21:42:40.259Z,3.787842
2023-02-14T21:46:05.454Z,3.858337
2023-02-14T21:49:30.572Z,3.868408
2023-02-14T21:52:55.718Z,3.868408
2023-02-14T21:56:20.968Z,3.757629
2023-02-14T21:59:46.100Z,3.687134
2023-02-14T22:03:12.360Z,3.616638
2023-02-14T22:06:36.428Z,3.415222
2023-02-14T22:10:01.621Z,3.314514
2023-02-14T22:13:26.803Z,3.26416
2023-02-14T22:16:51.962Z,3.395081
2023-02-14T22:20:17.130Z,3.51593
2023-02-14T22:23:42.280Z,3.697205
2023-02-14T22:27:07.437Z,3.828125
2023-02-14T22:30:32.656Z,3.938904
2023-02-14T22:33:57.779Z,3.979187
2023-02-14T22:37:22.948Z,3.938904
2023-02-14T22:40:48.108Z,3.868408
2023-02-14T22:44:13.276Z,3.697205
2023-02-14T22:47:38.457Z,3.505859
2023-02-14T22:51:03.611Z,3.324585
2023-02-14T22:54:28.758Z,3.153381
2023-02-14T22:57:53.937Z,3.233948
2023-02-14T23:01:19.135Z,3.395081
2023-02-14T23:04:44.303Z,3.566284
2023-02-14T23:08:09.439Z,3.747559
2023-02-14T23:11:36.376Z,3.898621
2023-02-14T23:15:01.531Z,3.969116
2023-02-14T23:18:26.718Z,4.049683
2023-02-14T23:21:51.899Z,4.079895
2023-02-14T23:25:17.076Z,4.120178
2023-02-14T23:28:42.287Z,4.160461
2023-02-14T23:32:07.486Z,4.150391
2023-02-14T23:35:32.616Z,4.180603
2023-02-14T23:38:57.820Z,4.180603
2023-02-14T23:42:22.988Z,4.120178
2023-02-14T23:45:48.182Z,4.079895
2023-02-14T23:49:13.321Z,4.089966
2023-02-14T23:52:38.696Z,4.150391
2023-02-14T23:56:03.888Z,4.120178
2023-02-14T23:59:28.847Z,4.150391
